sensor_id;sensor_type;location;lat;lon;timestamp;pressure;altitude;pressure_sealevel;temperature;humidity
72798;BME280;61084;55.816;37.036;2022-07-30T00:02:24;99819.63;;;14.73;62.22
72798;BME280;61084;55.816;37.036;2022-07-30T00:04:50;99813.69;;;14.69;62.38
72798;BME280;61084;55.816;37.036;2022-07-30T00:07:16;99815.59;;;14.67;62.60
72798;BME280;61084;55.816;37.036;2022-07-30T00:09:41;99815.78;;;14.64;62.45
72798;BME280;61084;55.816;37.036;2022-07-30T00:12:08;99811.53;;;14.62;62.28
72798;BME280;61084;55.816;37.036;2022-07-30T00:14:34;99812.59;;;14.59;62.35
72798;BME280;61084;55.816;37.036;2022-07-30T00:17:03;99817.19;;;14.56;62.42
72798;BME280;61084;55.816;37.036;2022-07-30T00:19:29;99812.19;;;14.51;62.62
72798;BME280;61084;55.816;37.036;2022-07-30T00:21:55;99817.50;;;14.51;62.41
72798;BME280;61084;55.816;37.036;2022-07-30T00:24:21;99818.72;;;14.46;62.47
72798;BME280;61084;55.816;37.036;2022-07-30T00:26:47;99815.41;;;14.42;62.41
72798;BME280;61084;55.816;37.036;2022-07-30T00:29:13;99811.09;;;14.41;62.47
72798;BME280;61084;55.816;37.036;2022-07-30T00:31:39;99815.69;;;14.38;62.61
72798;BME280;61084;55.816;37.036;2022-07-30T00:34:05;99815.91;;;14.34;62.61
72798;BME280;61084;55.816;37.036;2022-07-30T00:36:30;99816.06;;;14.31;62.25
72798;BME280;61084;55.816;37.036;2022-07-30T00:38:56;99815.50;;;14.26;62.62
72798;BME280;61084;55.816;37.036;2022-07-30T00:41:23;99816.53;;;14.24;62.61
72798;BME280;61084;55.816;37.036;2022-07-30T00:43:49;99821.13;;;14.20;62.69
72798;BME280;61084;55.816;37.036;2022-07-30T00:46:15;99819.56;;;14.18;62.73
72798;BME280;61084;55.816;37.036;2022-07-30T00:48:41;99822.47;;;14.13;62.71
72798;BME280;61084;55.816;37.036;2022-07-30T00:51:08;99825.19;;;14.12;62.89
72798;BME280;61084;55.816;37.036;2022-07-30T00:53:34;99820.94;;;14.09;62.88
72798;BME280;61084;55.816;37.036;2022-07-30T00:56:00;99815.00;;;14.06;62.81
72798;BME280;61084;55.816;37.036;2022-07-30T00:58:27;99813.50;;;14.02;62.67
72798;BME280;61084;55.816;37.036;2022-07-30T01:00:53;99816.50;;;13.96;62.85
72798;BME280;61084;55.816;37.036;2022-07-30T01:03:19;99815.81;;;13.92;62.93
72798;BME280;61084;55.816;37.036;2022-07-30T01:05:45;99819.47;;;13.90;63.04
72798;BME280;61084;55.816;37.036;2022-07-30T01:08:11;99816.09;;;13.88;63.15
72798;BME280;61084;55.816;37.036;2022-07-30T01:10:36;99813.66;;;13.85;62.93
72798;BME280;61084;55.816;37.036;2022-07-30T01:13:03;99807.69;;;13.81;63.12
72798;BME280;61084;55.816;37.036;2022-07-30T01:15:30;99810.53;;;13.78;63.05
72798;BME280;61084;55.816;37.036;2022-07-30T01:18:00;99807.13;;;13.76;63.18
72798;BME280;61084;55.816;37.036;2022-07-30T01:20:47;99809.94;;;13.73;63.36
72798;BME280;61084;55.816;37.036;2022-07-30T01:23:22;99802.22;;;13.70;63.16
72798;BME280;61084;55.816;37.036;2022-07-30T01:28:19;99803.31;;;13.66;63.24
72798;BME280;61084;55.816;37.036;2022-07-30T01:30:47;99808.81;;;13.63;62.99
72798;BME280;61084;55.816;37.036;2022-07-30T01:33:14;99797.75;;;13.56;63.15
72798;BME280;61084;55.816;37.036;2022-07-30T01:35:44;99802.19;;;13.56;63.19
72798;BME280;61084;55.816;37.036;2022-07-30T01:38:11;99798.78;;;13.54;63.09
72798;BME280;61084;55.816;37.036;2022-07-30T01:40:43;99799.03;;;13.49;63.26
72798;BME280;61084;55.816;37.036;2022-07-30T01:43:09;99800.16;;;13.45;63.58
72798;BME280;61084;55.816;37.036;2022-07-30T01:45:36;99798.44;;;13.44;63.58
72798;BME280;61084;55.816;37.036;2022-07-30T01:48:04;99801.09;;;13.44;63.56
72798;BME280;61084;55.816;37.036;2022-07-30T01:50:33;99802.06;;;13.43;63.58
72798;BME280;61084;55.816;37.036;2022-07-30T01:52:59;99798.56;;;13.43;63.62
72798;BME280;61084;55.816;37.036;2022-07-30T01:55:32;99793.38;;;13.41;63.93
72798;BME280;61084;55.816;37.036;2022-07-30T01:57:59;99803.16;;;13.39;63.51
72798;BME280;61084;55.816;37.036;2022-07-30T02:00:27;99804.94;;;13.39;63.50
72798;BME280;61084;55.816;37.036;2022-07-30T02:02:56;99804.09;;;13.38;63.63
72798;BME280;61084;55.816;37.036;2022-07-30T02:05:23;99812.97;;;13.37;63.52
72798;BME280;61084;55.816;37.036;2022-07-30T02:07:55;99807.84;;;13.34;63.72
72798;BME280;61084;55.816;37.036;2022-07-30T02:10:31;99807.00;;;13.34;63.82
72798;BME280;61084;55.816;37.036;2022-07-30T02:13:02;99807.09;;;13.32;63.88
72798;BME280;61084;55.816;37.036;2022-07-30T02:18:18;99802.75;;;13.31;64.07
72798;BME280;61084;55.816;37.036;2022-07-30T02:20:50;99802.56;;;13.34;64.03
72798;BME280;61084;55.816;37.036;2022-07-30T02:23:18;99802.47;;;13.36;63.78
72798;BME280;61084;55.816;37.036;2022-07-30T02:25:50;99797.13;;;13.37;64.02
72798;BME280;61084;55.816;37.036;2022-07-30T02:28:19;99805.81;;;13.39;63.97
72798;BME280;61084;55.816;37.036;2022-07-30T02:30:50;99804.94;;;13.39;63.92
72798;BME280;61084;55.816;37.036;2022-07-30T02:33:23;99807.38;;;13.42;64.29
72798;BME280;61084;55.816;37.036;2022-07-30T02:35:50;99805.53;;;13.44;64.72
72798;BME280;61084;55.816;37.036;2022-07-30T02:38:17;99808.84;;;13.47;64.30
72798;BME280;61084;55.816;37.036;2022-07-30T02:40:45;99810.63;;;13.47;64.49
72798;BME280;61084;55.816;37.036;2022-07-30T02:43:16;99804.31;;;13.49;64.55
72798;BME280;61084;55.816;37.036;2022-07-30T02:45:48;99812.06;;;13.52;64.74
72798;BME280;61084;55.816;37.036;2022-07-30T02:48:19;99810.84;;;13.58;64.44
72798;BME280;61084;55.816;37.036;2022-07-30T02:50:47;99819.34;;;13.63;64.48
72798;BME280;61084;55.816;37.036;2022-07-30T02:53:14;99825.28;;;13.67;64.47
72798;BME280;61084;55.816;37.036;2022-07-30T02:55:42;99818.88;;;13.71;64.65
72798;BME280;61084;55.816;37.036;2022-07-30T02:58:09;99830.03;;;13.76;64.43
72798;BME280;61084;55.816;37.036;2022-07-30T03:00:36;99833.31;;;13.79;64.76
72798;BME280;61084;55.816;37.036;2022-07-30T03:03:04;99830.41;;;13.84;64.82
72798;BME280;61084;55.816;37.036;2022-07-30T03:05:32;99833.63;;;13.89;64.98
72798;BME280;61084;55.816;37.036;2022-07-30T03:07:59;99834.03;;;13.97;64.94
72798;BME280;61084;55.816;37.036;2022-07-30T03:10:26;99830.09;;;14.04;65.14
72798;BME280;61084;55.816;37.036;2022-07-30T03:12:52;99830.56;;;14.10;64.90
72798;BME280;61084;55.816;37.036;2022-07-30T03:15:19;99832.81;;;14.16;64.76
72798;BME280;61084;55.816;37.036;2022-07-30T03:17:48;99831.63;;;14.22;65.36
72798;BME280;61084;55.816;37.036;2022-07-30T03:20:17;99833.75;;;14.31;65.31
72798;BME280;61084;55.816;37.036;2022-07-30T03:22:47;99840.31;;;14.38;65.22
72798;BME280;61084;55.816;37.036;2022-07-30T03:25:19;99843.25;;;14.48;65.23
72798;BME280;61084;55.816;37.036;2022-07-30T03:27:47;99840.22;;;14.54;65.23
72798;BME280;61084;55.816;37.036;2022-07-30T03:30:13;99838.69;;;14.64;65.22
72798;BME280;61084;55.816;37.036;2022-07-30T03:32:39;99836.34;;;14.73;65.25
72798;BME280;61084;55.816;37.036;2022-07-30T03:35:07;99839.34;;;14.81;65.33
72798;BME280;61084;55.816;37.036;2022-07-30T03:37:35;99835.09;;;14.93;65.14
72798;BME280;61084;55.816;37.036;2022-07-30T03:40:03;99838.00;;;15.02;65.04
72798;BME280;61084;55.816;37.036;2022-07-30T03:42:31;99834.84;;;15.10;65.11
72798;BME280;61084;55.816;37.036;2022-07-30T03:44:59;99835.88;;;15.22;65.00
72798;BME280;61084;55.816;37.036;2022-07-30T03:47:31;99834.22;;;15.33;65.00
72798;BME280;61084;55.816;37.036;2022-07-30T03:49:58;99838.84;;;15.44;64.61
72798;BME280;61084;55.816;37.036;2022-07-30T03:52:26;99842.56;;;15.54;64.26
72798;BME280;61084;55.816;37.036;2022-07-30T03:54:53;99838.28;;;15.65;64.21
72798;BME280;61084;55.816;37.036;2022-07-30T03:57:31;99838.47;;;15.75;64.00
72798;BME280;61084;55.816;37.036;2022-07-30T03:59:58;99835.22;;;15.84;64.29
72798;BME280;61084;55.816;37.036;2022-07-30T04:02:25;99844.25;;;15.94;64.00
72798;BME280;61084;55.816;37.036;2022-07-30T04:04:51;99842.56;;;16.06;64.08
72798;BME280;61084;55.816;37.036;2022-07-30T04:07:16;99841.00;;;16.16;63.74
72798;BME280;61084;55.816;37.036;2022-07-30T04:09:42;99850.72;;;16.28;63.52
72798;BME280;61084;55.816;37.036;2022-07-30T04:12:29;99846.41;;;16.39;62.99
72798;BME280;61084;55.816;37.036;2022-07-30T04:14:55;99844.72;;;16.51;63.06
72798;BME280;61084;55.816;37.036;2022-07-30T04:17:50;99851.81;;;16.63;63.13
72798;BME280;61084;55.816;37.036;2022-07-30T04:20:29;99848.28;;;16.75;63.28
72798;BME280;61084;55.816;37.036;2022-07-30T04:22:57;99841.38;;;16.85;62.30
72798;BME280;61084;55.816;37.036;2022-07-30T04:25:24;99845.91;;;16.96;62.42
72798;BME280;61084;55.816;37.036;2022-07-30T04:27:50;99843.56;;;17.04;62.22
72798;BME280;61084;55.816;37.036;2022-07-30T04:30:16;99847.13;;;17.15;61.69
72798;BME280;61084;55.816;37.036;2022-07-30T04:32:42;99855.03;;;17.28;61.63
72798;BME280;61084;55.816;37.036;2022-07-30T04:35:08;99849.91;;;17.38;61.20
72798;BME280;61084;55.816;37.036;2022-07-30T04:37:57;99849.66;;;17.53;61.49
72798;BME280;61084;55.816;37.036;2022-07-30T04:40:24;99854.06;;;17.65;60.97
72798;BME280;61084;55.816;37.036;2022-07-30T04:42:50;99845.28;;;17.76;60.66
72798;BME280;61084;55.816;37.036;2022-07-30T04:45:17;99851.72;;;17.84;60.75
72798;BME280;61084;55.816;37.036;2022-07-30T04:47:49;99848.94;;;17.86;60.09
72798;BME280;61084;55.816;37.036;2022-07-30T04:50:53;99854.66;;;18.03;60.20
72798;BME280;61084;55.816;37.036;2022-07-30T04:53:21;99852.88;;;18.15;60.14
72798;BME280;61084;55.816;37.036;2022-07-30T04:55:52;99857.25;;;18.27;59.93
72798;BME280;61084;55.816;37.036;2022-07-30T04:58:21;99860.66;;;18.40;59.39
72798;BME280;61084;55.816;37.036;2022-07-30T05:00:50;99858.53;;;18.56;58.94
72798;BME280;61084;55.816;37.036;2022-07-30T05:03:22;99854.66;;;18.71;58.81
72798;BME280;61084;55.816;37.036;2022-07-30T05:05:50;99856.34;;;18.83;58.48
72798;BME280;61084;55.816;37.036;2022-07-30T05:08:16;99858.16;;;18.94;58.43
72798;BME280;61084;55.816;37.036;2022-07-30T05:10:43;99859.84;;;19.06;58.07
72798;BME280;61084;55.816;37.036;2022-07-30T05:13:11;99860.16;;;19.24;58.10
72798;BME280;61084;55.816;37.036;2022-07-30T05:15:39;99860.66;;;19.40;58.00
72798;BME280;61084;55.816;37.036;2022-07-30T05:18:09;99856.25;;;19.50;56.56
72798;BME280;61084;55.816;37.036;2022-07-30T05:20:38;99862.78;;;19.57;55.85
72798;BME280;61084;55.816;37.036;2022-07-30T05:23:22;99860.78;;;19.70;55.85
72798;BME280;61084;55.816;37.036;2022-07-30T05:26:04;99860.84;;;19.80;55.44
72798;BME280;61084;55.816;37.036;2022-07-30T05:28:35;99864.31;;;19.91;55.42
72798;BME280;61084;55.816;37.036;2022-07-30T05:31:04;99860.28;;;19.97;55.10
72798;BME280;61084;55.816;37.036;2022-07-30T05:33:30;99858.56;;;20.07;54.86
72798;BME280;61084;55.816;37.036;2022-07-30T05:35:56;99861.25;;;20.16;54.72
72798;BME280;61084;55.816;37.036;2022-07-30T05:38:24;99860.53;;;20.25;54.69
72798;BME280;61084;55.816;37.036;2022-07-30T05:41:19;99860.69;;;20.34;52.41
72798;BME280;61084;55.816;37.036;2022-07-30T05:44:11;99865.38;;;20.41;52.84
72798;BME280;61084;55.816;37.036;2022-07-30T05:46:37;99864.75;;;20.49;53.28
72798;BME280;61084;55.816;37.036;2022-07-30T05:49:03;99870.50;;;20.54;53.65
72798;BME280;61084;55.816;37.036;2022-07-30T05:51:30;99866.16;;;20.53;53.25
72798;BME280;61084;55.816;37.036;2022-07-30T05:53:56;99872.22;;;20.55;52.55
72798;BME280;61084;55.816;37.036;2022-07-30T05:56:51;99861.88;;;20.71;52.43
72798;BME280;61084;55.816;37.036;2022-07-30T05:59:27;99871.63;;;20.81;52.36
72798;BME280;61084;55.816;37.036;2022-07-30T06:02:13;99874.97;;;21.04;51.92
72798;BME280;61084;55.816;37.036;2022-07-30T06:05:01;99868.69;;;21.15;51.66
72798;BME280;61084;55.816;37.036;2022-07-30T06:07:29;99872.50;;;21.22;51.22
72798;BME280;61084;55.816;37.036;2022-07-30T06:09:56;99875.47;;;21.28;50.69
72798;BME280;61084;55.816;37.036;2022-07-30T06:12:29;99868.44;;;21.27;51.03
72798;BME280;61084;55.816;37.036;2022-07-30T06:14:56;99872.28;;;21.44;51.53
72798;BME280;61084;55.816;37.036;2022-07-30T06:17:29;99869.03;;;21.50;51.11
72798;BME280;61084;55.816;37.036;2022-07-30T06:20:13;99864.13;;;21.45;50.49
72798;BME280;61084;55.816;37.036;2022-07-30T06:23:08;99868.91;;;21.42;51.00
72798;BME280;61084;55.816;37.036;2022-07-30T06:25:57;99858.47;;;21.39;50.12
72798;BME280;61084;55.816;37.036;2022-07-30T06:28:23;99863.81;;;21.39;50.09
72798;BME280;61084;55.816;37.036;2022-07-30T06:30:50;99869.75;;;21.52;50.11
72798;BME280;61084;55.816;37.036;2022-07-30T06:33:17;99861.03;;;21.69;50.67
72798;BME280;61084;55.816;37.036;2022-07-30T06:35:42;99865.72;;;21.86;49.90
72798;BME280;61084;55.816;37.036;2022-07-30T06:38:11;99866.09;;;21.82;48.25
72798;BME280;61084;55.816;37.036;2022-07-30T06:40:50;99875.69;;;21.74;48.01
72798;BME280;61084;55.816;37.036;2022-07-30T06:43:21;99876.66;;;21.73;47.79
72798;BME280;61084;55.816;37.036;2022-07-30T06:46:16;99870.09;;;21.87;48.09
72798;BME280;61084;55.816;37.036;2022-07-30T06:48:45;99867.53;;;22.05;48.26
72798;BME280;61084;55.816;37.036;2022-07-30T06:51:11;99870.88;;;22.26;48.33
72798;BME280;61084;55.816;37.036;2022-07-30T06:53:38;99868.22;;;22.35;48.35
72798;BME280;61084;55.816;37.036;2022-07-30T06:56:11;99873.56;;;22.35;47.23
72798;BME280;61084;55.816;37.036;2022-07-30T06:58:47;99869.75;;;22.19;47.18
72798;BME280;61084;55.816;37.036;2022-07-30T07:01:31;99870.34;;;22.13;47.43
72798;BME280;61084;55.816;37.036;2022-07-30T07:03:57;99872.47;;;22.00;46.84
72798;BME280;61084;55.816;37.036;2022-07-30T07:06:23;99862.03;;;21.97;47.45
72798;BME280;61084;55.816;37.036;2022-07-30T07:08:48;99867.69;;;21.94;46.99
72798;BME280;61084;55.816;37.036;2022-07-30T07:11:19;99871.34;;;22.02;47.20
72798;BME280;61084;55.816;37.036;2022-07-30T07:13:52;99874.84;;;22.12;46.63
72798;BME280;61084;55.816;37.036;2022-07-30T07:16:25;99868.75;;;22.29;46.54
72798;BME280;61084;55.816;37.036;2022-07-30T07:18:53;99873.50;;;22.45;46.24
72798;BME280;61084;55.816;37.036;2022-07-30T07:21:19;99865.78;;;22.61;45.31
72798;BME280;61084;55.816;37.036;2022-07-30T07:23:46;99869.13;;;22.73;44.94
72798;BME280;61084;55.816;37.036;2022-07-30T07:26:41;99866.31;;;22.65;44.87
72798;BME280;61084;55.816;37.036;2022-07-30T07:29:09;99868.97;;;22.65;45.41
72798;BME280;61084;55.816;37.036;2022-07-30T07:31:35;99868.00;;;22.56;45.38
72798;BME280;61084;55.816;37.036;2022-07-30T07:34:01;99874.53;;;22.44;44.74
72798;BME280;61084;55.816;37.036;2022-07-30T07:36:27;99876.06;;;22.46;44.64
72798;BME280;61084;55.816;37.036;2022-07-30T07:38:53;99866.31;;;22.65;44.33
72798;BME280;61084;55.816;37.036;2022-07-30T07:41:18;99864.03;;;22.70;44.96
72798;BME280;61084;55.816;37.036;2022-07-30T07:43:44;99861.09;;;22.53;42.23
72798;BME280;61084;55.816;37.036;2022-07-30T07:46:17;99864.19;;;22.68;44.23
72798;BME280;61084;55.816;37.036;2022-07-30T07:48:43;99868.63;;;22.87;44.96
72798;BME280;61084;55.816;37.036;2022-07-30T07:51:30;99863.13;;;23.15;42.68
72798;BME280;61084;55.816;37.036;2022-07-30T07:53:56;99854.72;;;23.38;44.36
72798;BME280;61084;55.816;37.036;2022-07-30T07:56:22;99850.13;;;23.48;43.05
72798;BME280;61084;55.816;37.036;2022-07-30T07:58:47;99846.50;;;23.39;42.27
72798;BME280;61084;55.816;37.036;2022-07-30T08:01:13;99855.88;;;23.25;43.16
72798;BME280;61084;55.816;37.036;2022-07-30T08:04:05;99861.59;;;23.13;42.42
72798;BME280;61084;55.816;37.036;2022-07-30T08:06:54;99855.81;;;23.08;43.35
72798;BME280;61084;55.816;37.036;2022-07-30T08:09:38;99863.63;;;23.01;42.83
72798;BME280;61084;55.816;37.036;2022-07-30T08:12:30;99844.22;;;23.17;43.30
72798;BME280;61084;55.816;37.036;2022-07-30T08:15:15;99852.03;;;23.38;43.45
72798;BME280;61084;55.816;37.036;2022-07-30T08:18:03;99849.09;;;23.31;42.33
72798;BME280;61084;55.816;37.036;2022-07-30T08:21:02;99845.84;;;23.27;41.98
72798;BME280;61084;55.816;37.036;2022-07-30T08:23:30;99844.81;;;23.38;41.48
72798;BME280;61084;55.816;37.036;2022-07-30T08:25:57;99851.91;;;23.57;41.29
72798;BME280;61084;55.816;37.036;2022-07-30T08:28:23;99835.81;;;23.57;41.54
72798;BME280;61084;55.816;37.036;2022-07-30T08:30:50;99832.75;;;23.69;42.35
72798;BME280;61084;55.816;37.036;2022-07-30T08:33:16;99836.25;;;23.87;41.75
72798;BME280;61084;55.816;37.036;2022-07-30T08:35:42;99833.47;;;24.15;42.22
72798;BME280;61084;55.816;37.036;2022-07-30T08:38:08;99837.22;;;24.22;40.65
72798;BME280;61084;55.816;37.036;2022-07-30T08:40:34;99839.41;;;24.18;41.72
72798;BME280;61084;55.816;37.036;2022-07-30T08:43:05;99838.84;;;24.15;40.57
72798;BME280;61084;55.816;37.036;2022-07-30T08:45:31;99840.06;;;24.20;41.13
72798;BME280;61084;55.816;37.036;2022-07-30T08:48:06;99830.31;;;24.45;42.28
72798;BME280;61084;55.816;37.036;2022-07-30T08:50:42;99826.75;;;24.62;40.55
72798;BME280;61084;55.816;37.036;2022-07-30T08:53:28;99821.78;;;24.75;40.78
72798;BME280;61084;55.816;37.036;2022-07-30T08:55:56;99829.53;;;24.78;39.88
72798;BME280;61084;55.816;37.036;2022-07-30T08:58:40;99820.69;;;24.60;38.66
72798;BME280;61084;55.816;37.036;2022-07-30T09:01:06;99834.88;;;24.44;40.82
72798;BME280;61084;55.816;37.036;2022-07-30T09:03:33;99834.13;;;24.34;40.31
72798;BME280;61084;55.816;37.036;2022-07-30T09:06:02;99828.00;;;24.50;41.13
72798;BME280;61084;55.816;37.036;2022-07-30T09:08:28;99822.22;;;24.62;40.20
72798;BME280;61084;55.816;37.036;2022-07-30T09:10:54;99822.50;;;24.77;40.27
72798;BME280;61084;55.816;37.036;2022-07-30T09:13:28;99819.84;;;24.85;39.13
72798;BME280;61084;55.816;37.036;2022-07-30T09:15:57;99821.59;;;25.02;39.28
72798;BME280;61084;55.816;37.036;2022-07-30T09:21:22;99821.31;;;25.29;38.07
72798;BME280;61084;55.816;37.036;2022-07-30T09:24:04;99827.91;;;25.35;38.21
72798;BME280;61084;55.816;37.036;2022-07-30T09:26:53;99818.13;;;25.34;37.73
72798;BME280;61084;55.816;37.036;2022-07-30T09:29:42;99823.75;;;25.49;38.52
72798;BME280;61084;55.816;37.036;2022-07-30T09:32:46;99820.75;;;25.60;36.43
72798;BME280;61084;55.816;37.036;2022-07-30T09:35:25;99824.25;;;25.60;37.63
72798;BME280;61084;55.816;37.036;2022-07-30T09:38:10;99831.84;;;25.65;35.83
72798;BME280;61084;55.816;37.036;2022-07-30T09:41:02;99831.47;;;25.52;33.15
72798;BME280;61084;55.816;37.036;2022-07-30T09:43:51;99834.03;;;25.53;36.23
72798;BME280;61084;55.816;37.036;2022-07-30T09:46:42;99834.63;;;25.39;35.14
72798;BME280;61084;55.816;37.036;2022-07-30T09:49:16;99829.28;;;25.47;36.58
72798;BME280;61084;55.816;37.036;2022-07-30T09:51:42;99823.94;;;25.63;35.42
72798;BME280;61084;55.816;37.036;2022-07-30T09:54:08;99821.78;;;25.75;36.50
72798;BME280;61084;55.816;37.036;2022-07-30T09:56:33;99819.09;;;25.83;35.60
72798;BME280;61084;55.816;37.036;2022-07-30T09:58:59;99818.75;;;25.86;35.36
72798;BME280;61084;55.816;37.036;2022-07-30T10:01:25;99817.91;;;25.85;33.60
72798;BME280;61084;55.816;37.036;2022-07-30T10:04:28;99821.75;;;25.91;31.80
72798;BME280;61084;55.816;37.036;2022-07-30T10:07:04;99812.00;;;25.98;33.85
72798;BME280;61084;55.816;37.036;2022-07-30T10:09:42;99817.75;;;26.11;36.21
72798;BME280;61084;55.816;37.036;2022-07-30T10:12:12;99820.75;;;26.08;36.08
72798;BME280;61084;55.816;37.036;2022-07-30T10:14:44;99816.38;;;26.07;35.67
72798;BME280;61084;55.816;37.036;2022-07-30T10:17:13;99818.06;;;26.08;36.01
72798;BME280;61084;55.816;37.036;2022-07-30T10:19:42;99812.19;;;26.12;35.71
72798;BME280;61084;55.816;37.036;2022-07-30T10:22:29;99815.38;;;26.32;36.93
72798;BME280;61084;55.816;37.036;2022-07-30T10:25:19;99811.97;;;26.46;34.85
72798;BME280;61084;55.816;37.036;2022-07-30T10:28:10;99815.97;;;26.58;36.07
72798;BME280;61084;55.816;37.036;2022-07-30T10:30:56;99809.38;;;26.69;35.32
72798;BME280;61084;55.816;37.036;2022-07-30T10:33:27;99811.38;;;26.83;34.89
72798;BME280;61084;55.816;37.036;2022-07-30T10:35:53;99818.25;;;26.94;36.22
72798;BME280;61084;55.816;37.036;2022-07-30T10:38:29;99808.75;;;27.06;35.63
72798;BME280;61084;55.816;37.036;2022-07-30T10:41:04;99805.84;;;27.15;34.92
72798;BME280;61084;55.816;37.036;2022-07-30T10:49:15;99815.91;;;27.21;33.71
72798;BME280;61084;55.816;37.036;2022-07-30T10:51:51;99811.63;;;27.35;33.76
72798;BME280;61084;55.816;37.036;2022-07-30T10:54:44;99803.09;;;27.54;33.34
72798;BME280;61084;55.816;37.036;2022-07-30T10:57:14;99802.59;;;27.73;35.41
72798;BME280;61084;55.816;37.036;2022-07-30T11:02:20;99807.75;;;27.60;32.83
72798;BME280;61084;55.816;37.036;2022-07-30T11:04:47;99799.97;;;27.65;33.87
72798;BME280;61084;55.816;37.036;2022-07-30T11:07:33;99805.13;;;27.52;32.79
72798;BME280;61084;55.816;37.036;2022-07-30T11:09:59;99802.75;;;27.57;35.81
72798;BME280;61084;55.816;37.036;2022-07-30T11:15:07;99797.69;;;27.77;34.63
72798;BME280;61084;55.816;37.036;2022-07-30T11:18:00;99791.38;;;27.84;32.67
72798;BME280;61084;55.816;37.036;2022-07-30T11:20:29;99790.38;;;27.85;32.93
72798;BME280;61084;55.816;37.036;2022-07-30T11:23:09;99799.97;;;27.88;31.70
72798;BME280;61084;55.816;37.036;2022-07-30T11:25:37;99804.63;;;27.94;32.37
72798;BME280;61084;55.816;37.036;2022-07-30T11:28:03;99796.44;;;27.87;32.12
72798;BME280;61084;55.816;37.036;2022-07-30T11:30:31;99795.47;;;28.03;32.95
72798;BME280;61084;55.816;37.036;2022-07-30T11:35:31;99795.59;;;28.24;33.29
72798;BME280;61084;55.816;37.036;2022-07-30T11:40:34;99791.81;;;28.48;33.54
72798;BME280;61084;55.816;37.036;2022-07-30T11:43:26;99787.00;;;28.58;32.06
72798;BME280;61084;55.816;37.036;2022-07-30T11:46:17;99783.34;;;28.65;32.15
72798;BME280;61084;55.816;37.036;2022-07-30T11:49:00;99793.06;;;28.60;31.98
72798;BME280;61084;55.816;37.036;2022-07-30T11:51:44;99779.59;;;28.52;31.40
72798;BME280;61084;55.816;37.036;2022-07-30T11:54:11;99787.00;;;28.72;31.28
72798;BME280;61084;55.816;37.036;2022-07-30T11:56:54;99778.41;;;28.83;31.60
72798;BME280;61084;55.816;37.036;2022-07-30T11:59:21;99788.44;;;29.04;33.28
72798;BME280;61084;55.816;37.036;2022-07-30T12:01:52;99779.31;;;29.05;31.80
72798;BME280;61084;55.816;37.036;2022-07-30T12:04:20;99777.44;;;29.05;29.90
72798;BME280;61084;55.816;37.036;2022-07-30T12:06:47;99784.50;;;29.06;31.80
72798;BME280;61084;55.816;37.036;2022-07-30T12:09:23;99783.88;;;29.04;30.59
72798;BME280;61084;55.816;37.036;2022-07-30T12:11:53;99784.34;;;28.93;31.61
72798;BME280;61084;55.816;37.036;2022-07-30T12:14:20;99777.13;;;28.79;31.69
72798;BME280;61084;55.816;37.036;2022-07-30T12:16:50;99783.44;;;28.86;31.59
72798;BME280;61084;55.816;37.036;2022-07-30T12:19:16;99781.09;;;28.98;31.79
72798;BME280;61084;55.816;37.036;2022-07-30T12:21:42;99780.25;;;28.97;31.78
72798;BME280;61084;55.816;37.036;2022-07-30T12:24:07;99780.81;;;28.93;30.95
72798;BME280;61084;55.816;37.036;2022-07-30T12:26:34;99786.69;;;28.96;31.23
72798;BME280;61084;55.816;37.036;2022-07-30T12:29:03;99779.09;;;29.06;30.81
72798;BME280;61084;55.816;37.036;2022-07-30T12:31:30;99781.16;;;29.19;31.18
72798;BME280;61084;55.816;37.036;2022-07-30T12:33:58;99771.91;;;29.28;30.89
72798;BME280;61084;55.816;37.036;2022-07-30T12:36:29;99773.31;;;29.45;31.57
72798;BME280;61084;55.816;37.036;2022-07-30T12:38:55;99774.56;;;29.64;31.56
72798;BME280;61084;55.816;37.036;2022-07-30T12:41:39;99770.06;;;29.71;31.30
72798;BME280;61084;55.816;37.036;2022-07-30T12:44:06;99774.72;;;29.77;31.83
72798;BME280;61084;55.816;37.036;2022-07-30T12:46:37;99767.09;;;29.45;29.77
72798;BME280;61084;55.816;37.036;2022-07-30T12:49:05;99774.59;;;29.49;30.64
72798;BME280;61084;55.816;37.036;2022-07-30T12:51:33;99773.06;;;29.61;30.54
72798;BME280;61084;55.816;37.036;2022-07-30T12:54:06;99765.66;;;29.70;29.87
72798;BME280;61084;55.816;37.036;2022-07-30T12:56:38;99759.34;;;29.84;28.70
72798;BME280;61084;55.816;37.036;2022-07-30T12:59:19;99760.44;;;29.90;30.45
72798;BME280;61084;55.816;37.036;2022-07-30T13:01:45;99758.84;;;29.74;30.58
72798;BME280;61084;55.816;37.036;2022-07-30T13:04:14;99758.44;;;29.56;30.29
72798;BME280;61084;55.816;37.036;2022-07-30T13:06:40;99764.97;;;29.40;30.10
72798;BME280;61084;55.816;37.036;2022-07-30T13:09:20;99763.28;;;29.39;28.99
72798;BME280;61084;55.816;37.036;2022-07-30T13:11:46;99758.78;;;29.46;30.61
72798;BME280;61084;55.816;37.036;2022-07-30T13:14:13;99760.38;;;29.62;30.27
72798;BME280;61084;55.816;37.036;2022-07-30T13:16:41;99759.50;;;29.76;30.63
72798;BME280;61084;55.816;37.036;2022-07-30T13:19:08;99762.94;;;29.91;30.61
72798;BME280;61084;55.816;37.036;2022-07-30T13:21:38;99765.06;;;29.96;30.22
72798;BME280;61084;55.816;37.036;2022-07-30T13:24:05;99761.88;;;29.86;29.41
72798;BME280;61084;55.816;37.036;2022-07-30T13:26:32;99764.88;;;29.97;29.87
72798;BME280;61084;55.816;37.036;2022-07-30T13:29:00;99750.75;;;30.02;30.66
72798;BME280;61084;55.816;37.036;2022-07-30T13:31:26;99763.38;;;29.88;29.32
72798;BME280;61084;55.816;37.036;2022-07-30T13:33:51;99761.56;;;29.74;29.35
72798;BME280;61084;55.816;37.036;2022-07-30T13:36:18;99758.91;;;29.59;29.20
72798;BME280;61084;55.816;37.036;2022-07-30T13:38:44;99757.03;;;29.39;30.02